Time;durP1;ratioP1;P1;durP2;ratioP2;P2;SDS_P1;SDS_P2;PMS_P1;PMS_P2;Temp;Humidity;BMP_temperature;BMP_pressure;BME280_temperature;BME280_humidity;BME280_pressure;Samples;Min_cycle;Max_cycle;Signal;HPM_P1;HPM_P2
2023/08/02 00:02:03;;;;;;;5.30;5.00;;;;;;;14.80;100.00;99733.59;6202845;23;20019;-69
2023/08/02 00:04:29;;;;;;;5.10;4.80;;;;;;;14.92;100.00;99751.03;6202864;23;20035;-70
2023/08/02 00:06:56;;;;;;;5.28;4.97;;;;;;;14.80;100.00;99733.59;6202726;23;20016;-70
2023/08/02 00:09:23;;;;;;;5.50;5.10;;;;;;;14.91;100.00;99749.34;6204303;23;20099;-70
2023/08/02 00:11:50;;;;;;;5.40;5.13;;;;;;;14.89;100.00;99738.06;6185969;23;20088;-69
2023/08/02 00:14:17;;;;;;;5.68;5.13;;;;;;;14.59;100.00;99684.25;6195044;23;20012;-69
2023/08/02 00:16:43;;;;;;;6.00;5.50;;;;;;;14.90;100.00;99721.25;6183094;23;20016;-70
2023/08/02 00:19:10;;;;;;;5.45;5.07;;;;;;;14.93;100.00;99713.06;6198942;23;20028;-69
2023/08/02 00:21:39;;;;;;;5.60;5.30;;;;;;;14.69;100.00;99665.81;6167248;23;20057;-70
2023/08/02 00:24:05;;;;;;;5.57;5.28;;;;;;;15.05;100.00;99727.03;6175996;23;20020;-70
2023/08/02 00:26:32;;;;;;;5.43;5.13;;;;;;;15.01;100.00;99723.81;6203559;23;20024;-70
2023/08/02 00:28:58;;;;;;;5.90;5.50;;;;;;;14.74;100.00;99701.44;6201727;23;20024;-69
2023/08/02 00:31:25;;;;;;;6.55;4.93;;;;;;;14.86;100.00;99722.50;6203057;23;20039;-71
2023/08/02 00:33:51;;;;;;;5.65;5.25;;;;;;;14.55;100.00;99678.41;6200617;23;20539;-70
2023/08/02 00:36:18;;;;;;;5.78;5.28;;;;;;;14.73;100.00;99727.97;6175078;23;20012;-69
2023/08/02 00:38:45;;;;;;;5.60;5.30;;;;;;;14.50;100.00;99693.78;6171759;23;20024;-70
2023/08/02 00:41:11;;;;;;;5.43;5.07;;;;;;;14.64;100.00;99740.16;6173778;23;20102;-69
2023/08/02 00:43:42;;;;;;;6.95;5.60;;;;;;;14.09;100.00;99661.16;6175414;23;20050;-69
2023/08/02 00:46:13;;;;;;;5.88;5.40;;;;;;;14.49;100.00;99717.66;6198728;23;20054;-70
2023/08/02 00:48:40;;;;;;;5.53;5.22;;;;;;;14.36;100.00;99697.56;6192806;23;20032;-69
2023/08/02 00:51:15;;;;;;;7.00;5.35;;;;;;;13.88;100.00;99629.47;6199925;22;20356;-70
2023/08/02 00:53:43;;;;;;;5.93;5.25;;;;;;;14.41;100.00;99730.66;6203870;23;20579;-69
2023/08/02 00:56:10;;;;;;;5.88;5.47;;;;;;;14.25;100.00;99718.78;6201966;23;20035;-69
2023/08/02 00:58:37;;;;;;;5.07;4.85;;;;;;;14.41;100.00;99735.94;6199592;23;20023;-69
2023/08/02 01:01:08;;;;;;;5.50;5.00;;;;;;;14.38;100.00;99738.84;6201729;23;20024;-69
2023/08/02 01:03:37;;;;;;;5.85;5.00;;;;;;;14.36;100.00;99736.34;6201773;23;20047;-69
2023/08/02 01:06:27;;;;;;;6.18;5.72;;;;;;;14.32;100.00;99730.47;6201579;23;20072;-69
2023/08/02 01:09:23;;;;;;;5.57;5.28;;;;;;;14.03;100.00;99676.63;6173969;23;20061;-70
2023/08/02 01:12:12;;;;;;;6.40;5.72;;;;;;;14.29;100.00;99730.75;6200551;23;20553;-70
2023/08/02 01:14:43;;;;;;;5.70;5.35;;;;;;;14.32;100.00;99725.19;6196647;23;20034;-69
2023/08/02 01:17:24;;;;;;;6.90;5.60;;;;;;;14.27;100.00;99703.66;6195752;23;20101;-69
2023/08/02 01:19:51;;;;;;;5.63;5.25;;;;;;;14.14;100.00;99661.59;6190691;23;20740;-70
2023/08/02 01:22:17;;;;;;;5.78;5.38;;;;;;;14.17;100.00;99644.66;6170625;23;20054;-70
2023/08/02 01:24:44;;;;;;;5.82;5.28;;;;;;;14.65;100.00;99720.69;6176030;23;20099;-69
2023/08/02 01:27:19;;;;;;;5.80;5.40;;;;;;;14.65;100.00;99717.22;6194228;23;20086;-70
2023/08/02 01:29:48;;;;;;;6.03;5.50;;;;;;;14.59;100.00;99684.25;6198151;23;20019;-70
2023/08/02 01:32:16;;;;;;;6.00;5.40;;;;;;;14.78;100.00;99707.31;6173301;23;20088;-69
2023/08/02 01:34:43;;;;;;;5.45;5.15;;;;;;;14.83;100.00;99714.81;6199031;23;20020;-69
2023/08/02 01:37:12;;;;;;;5.75;5.35;;;;;;;14.33;100.00;99620.44;6198689;23;20036;-69
2023/08/02 01:39:38;;;;;;;7.93;5.32;;;;;;;14.86;100.00;99704.00;6197504;23;20463;-69
2023/08/02 01:42:04;;;;;;;6.00;5.50;;;;;;;14.89;100.00;99711.66;6203802;23;20019;-69
2023/08/02 01:44:31;;;;;;;5.75;5.28;;;;;;;14.82;100.00;99689.41;6197416;23;20051;-70
2023/08/02 01:46:57;;;;;;;5.43;5.13;;;;;;;13.44;100.00;99444.22;6198573;23;20020;-69
2023/08/02 01:49:24;;;;;;;5.38;5.03;;;;;;;14.60;100.00;99614.66;6199981;23;20083;-70
2023/08/02 01:51:50;;;;;;;5.97;5.55;;;;;;;14.65;100.00;99612.44;6170821;23;20474;-69
2023/08/02 01:54:16;;;;;;;6.15;5.65;;;;;;;14.95;100.00;99656.50;6202556;23;20044;-69
2023/08/02 01:56:43;;;;;;;7.15;5.50;;;;;;;14.96;100.00;99657.31;6198668;23;20026;-69
2023/08/02 01:59:12;;;;;;;6.85;6.53;;;;;;;14.88;100.00;99652.72;6197333;23;20088;-69
2023/08/02 02:01:39;;;;;;;5.60;5.20;;;;;;;14.48;100.00;99573.44;6203329;22;20036;-69
2023/08/02 02:04:05;;;;;;;6.10;5.70;;;;;;;14.66;100.00;99594.81;6173219;23;20031;-69
2023/08/02 02:06:32;;;;;;;6.25;5.75;;;;;;;15.00;100.00;99640.25;6201354;23;20034;-69
2023/08/02 02:08:58;;;;;;;5.53;5.22;;;;;;;14.56;100.00;99563.91;6200242;23;20023;-69
2023/08/02 02:11:24;;;;;;;5.47;5.18;;;;;;;14.59;100.00;99568.06;6201012;23;20027;-69
2023/08/02 02:13:51;;;;;;;5.82;5.43;;;;;;;15.02;100.00;99643.59;6180167;23;20038;-69
2023/08/02 02:16:17;;;;;;;5.43;5.13;;;;;;;14.58;100.00;99562.94;6195996;23;20543;-69
2023/08/02 02:18:44;;;;;;;5.82;5.15;;;;;;;15.08;100.00;99629.81;6177584;23;20036;-70
2023/08/02 02:21:10;;;;;;;5.50;5.20;;;;;;;14.74;100.00;99584.41;6194759;23;20027;-69
2023/08/02 02:23:36;;;;;;;7.15;4.90;;;;;;;15.07;100.00;99620.22;6202216;23;20012;-69
2023/08/02 02:26:03;;;;;;;5.80;5.40;;;;;;;15.06;100.00;99610.63;6171721;23;20050;-69
2023/08/02 02:28:30;;;;;;;5.32;4.93;;;;;;;14.76;100.00;99559.53;6169970;23;20028;-69
2023/08/02 02:30:56;;;;;;;5.80;5.32;;;;;;;15.03;100.00;99597.69;6197747;23;20036;-69
2023/08/02 02:33:23;;;;;;;5.82;5.30;;;;;;;14.52;100.00;99499.13;6170901;23;20080;-69
2023/08/02 02:35:49;;;;;;;5.85;5.45;;;;;;;14.95;100.00;99579.03;6199236;23;20831;-69
2023/08/02 02:38:16;;;;;;;5.78;5.38;;;;;;;14.65;100.00;99538.50;6152818;23;20040;-69
2023/08/02 02:40:42;;;;;;;5.40;5.10;;;;;;;14.82;100.00;99570.53;6202087;23;20766;-70
2023/08/02 02:43:09;;;;;;;5.93;5.43;;;;;;;14.87;100.00;99568.31;6179071;23;20034;-69
2023/08/02 02:45:35;;;;;;;5.97;5.57;;;;;;;14.41;100.00;99511.56;6203912;23;20004;-69
2023/08/02 02:48:01;;;;;;;6.18;5.68;;;;;;;14.99;100.00;99590.16;6169730;23;20119;-69
2023/08/02 02:50:28;;;;;;;5.82;5.32;;;;;;;14.95;100.00;99576.38;6203952;23;20449;-69
2023/08/02 02:52:55;;;;;;;5.50;5.20;;;;;;;14.99;100.00;99566.38;6169567;23;20028;-69
2023/08/02 02:55:21;;;;;;;5.50;5.10;;;;;;;15.07;100.00;99558.59;6203025;23;20032;-71
2023/08/02 02:57:48;;;;;;;6.15;5.32;;;;;;;14.28;100.00;99427.38;6184984;23;20035;-69
2023/08/02 03:00:14;;;;;;;7.32;6.82;;;;;;;15.04;100.00;99520.09;6200511;23;20009;-70
2023/08/02 03:02:40;;;;;;;11.00;6.47;;;;;;;15.13;100.00;99524.56;6175280;23;20470;-70
2023/08/02 03:05:07;;;;;;;5.80;5.40;;;;;;;14.65;100.00;99437.31;6201920;23;20032;-70
2023/08/02 03:07:34;;;;;;;7.03;5.50;;;;;;;15.20;100.00;99516.06;6198411;23;20113;-69
2023/08/02 03:10:00;;;;;;;7.13;6.20;;;;;;;15.27;100.00;99523.28;6202539;23;20068;-69
2023/08/02 03:12:27;;;;;;;6.07;5.30;;;;;;;15.23;100.00;99521.06;6202162;23;20660;-71
2023/08/02 03:14:53;;;;;;;6.75;5.55;;;;;;;15.22;100.00;99514.97;6201705;23;20035;-69
2023/08/02 03:17:19;;;;;;;5.78;5.38;;;;;;;15.35;100.00;99528.75;6205367;23;21045;-69
2023/08/02 03:19:46;;;;;;;5.78;5.28;;;;;;;14.39;100.00;99350.69;6199814;23;20493;-69
2023/08/02 03:22:12;;;;;;;5.88;5.38;;;;;;;14.89;100.00;99434.28;6142026;23;20013;-70
2023/08/02 03:24:39;;;;;;;5.40;5.10;;;;;;;14.97;100.00;99445.00;6201766;23;20594;-70
2023/08/02 03:27:06;;;;;;;5.45;5.15;;;;;;;15.40;100.00;99504.53;6197617;23;20051;-69
2023/08/02 03:29:49;;;;;;;16.00;14.65;;;;;;;14.89;100.00;99436.91;6087769;23;20339;-70
2023/08/02 03:32:15;;;;;;;5.65;5.35;;;;;;;15.39;100.00;99507.28;6200600;23;20012;-69
2023/08/02 03:34:42;;;;;;;5.70;5.20;;;;;;;15.39;100.00;99489.63;6175890;23;20020;-69
2023/08/02 03:37:08;;;;;;;7.97;5.40;;;;;;;15.09;100.00;99443.03;6199014;23;20099;-69
2023/08/02 03:39:35;;;;;;;5.50;5.10;;;;;;;15.31;100.00;99476.28;6203641;23;20521;-69
2023/08/02 03:42:01;;;;;;;5.25;4.97;;;;;;;15.02;100.00;99426.09;6203011;23;20083;-69
2023/08/02 03:44:28;;;;;;;5.65;5.30;;;;;;;14.54;100.00;99343.22;6204724;23;20035;-69
2023/08/02 03:46:54;;;;;;;5.35;5.05;;;;;;;15.37;100.00;99473.06;6175095;23;20281;-69
2023/08/02 03:49:22;;;;;;;5.07;4.78;;;;;;;15.34;100.00;99465.44;6177883;23;20584;-70
2023/08/02 03:51:49;;;;;;;7.65;5.30;;;;;;;15.32;100.00;99456.81;6201854;23;21925;-69
2023/08/02 03:54:15;;;;;;;5.80;5.30;;;;;;;14.68;100.00;99360.50;6183837;23;20076;-69
2023/08/02 03:56:42;;;;;;;5.53;5.13;;;;;;;15.04;100.00;99424.97;6197621;23;20035;-69
2023/08/02 03:59:09;;;;;;;6.00;5.50;;;;;;;15.26;100.00;99455.56;6170763;23;20093;-71
2023/08/02 04:01:35;;;;;;;5.47;5.18;;;;;;;14.91;100.00;99405.91;6200481;23;20028;-71
2023/08/02 04:04:02;;;;;;;6.32;5.72;;;;;;;15.28;100.00;99472.09;6170094;23;20265;-70
2023/08/02 04:06:28;;;;;;;6.43;5.35;;;;;;;15.07;100.00;99434.41;6205549;23;20089;-70
2023/08/02 04:08:55;;;;;;;5.68;5.38;;;;;;;15.26;100.00;99476.69;6179102;23;20032;-70
2023/08/02 04:11:21;;;;;;;5.75;5.25;;;;;;;14.98;100.00;99443.19;6204618;23;20076;-70
2023/08/02 04:13:50;;;;;;;6.10;5.60;;;;;;;14.90;100.00;99443.91;6163521;23;20020;-70
2023/08/02 04:16:16;;;;;;;5.63;5.32;;;;;;;15.27;100.00;99499.50;6199655;22;20020;-70
2023/08/02 04:18:43;;;;;;;5.53;5.13;;;;;;;15.30;100.00;99507.16;6173040;23;20032;-70
2023/08/02 04:21:15;;;;;;;5.80;5.50;;;;;;;14.88;100.00;99425.53;6198231;23;20027;-69
2023/08/02 04:23:41;;;;;;;6.00;5.35;;;;;;;14.90;100.00;99439.44;6201014;23;20529;-70
2023/08/02 04:26:09;;;;;;;5.80;5.50;;;;;;;15.00;100.00;99444.72;6179076;23;20020;-70
2023/08/02 04:28:36;;;;;;;6.28;5.72;;;;;;;15.24;100.00;99472.53;6198997;23;20517;-69
2023/08/02 04:31:03;;;;;;;5.78;5.35;;;;;;;15.31;100.00;99476.28;6206222;23;20000;-70
2023/08/02 04:33:29;;;;;;;5.47;5.18;;;;;;;15.04;100.00;99413.59;6204595;23;20091;-70
2023/08/02 04:35:59;;;;;;;5.85;5.45;;;;;;;15.34;100.00;99452.22;6205924;23;20087;-69
2023/08/02 04:38:26;;;;;;;6.40;5.45;;;;;;;15.34;100.00;99453.03;6200445;23;20024;-70
2023/08/02 04:40:53;;;;;;;5.50;5.10;;;;;;;15.29;100.00;99428.00;6204376;23;20051;-70
2023/08/02 04:43:19;;;;;;;5.50;5.20;;;;;;;14.55;100.00;99311.41;6203062;23;20646;-69
2023/08/02 04:45:46;;;;;;;5.65;5.30;;;;;;;15.34;100.00;99431.88;6200227;23;20031;-70
2023/08/02 04:48:12;;;;;;;6.10;5.80;;;;;;;15.34;100.00;99423.13;6197646;23;20032;-70
2023/08/02 04:50:39;;;;;;;6.80;6.20;;;;;;;15.32;100.00;99419.81;6177093;23;20028;-70
2023/08/02 04:53:06;;;;;;;5.60;5.30;;;;;;;15.32;100.00;99417.16;6202581;23;20676;-70
2023/08/02 04:55:44;;;;;;;6.22;5.68;;;;;;;15.32;100.00;99422.44;6145221;23;20584;-69
2023/08/02 04:58:11;;;;;;;5.97;5.68;;;;;;;14.80;100.00;99324.22;6200880;23;20022;-70
2023/08/02 05:00:37;;;;;;;5.97;5.60;;;;;;;15.31;100.00;99399.63;6203258;23;20023;-70
2023/08/02 05:03:04;;;;;;;5.70;5.40;;;;;;;14.87;100.00;99330.56;6201436;23;20106;-69
2023/08/02 05:05:32;;;;;;;5.88;5.45;;;;;;;15.34;100.00;99404.63;6205239;23;20069;-69
2023/08/02 05:07:58;;;;;;;5.70;5.30;;;;;;;15.02;100.00;99360.88;6199610;23;20079;-69
2023/08/02 05:10:25;;;;;;;6.07;5.55;;;;;;;15.33;100.00;99395.03;6171373;23;20575;-69
2023/08/02 05:12:51;;;;;;;5.50;5.20;;;;;;;15.35;100.00;99396.56;6200250;23;20071;-69
2023/08/02 05:15:18;;;;;;;6.25;5.85;;;;;;;14.29;100.00;99200.28;6171307;23;20024;-69
2023/08/02 05:17:44;;;;;;;6.30;5.50;;;;;;;15.19;100.00;99334.69;6204937;23;20052;-70
2023/08/02 05:20:11;;;;;;;5.90;5.40;;;;;;;15.31;100.00;99344.09;6173475;23;20086;-69
2023/08/02 05:22:37;;;;;;;5.95;5.55;;;;;;;14.68;100.00;99245.13;6205461;23;20016;-70
2023/08/02 05:25:04;;;;;;;5.63;5.28;;;;;;;15.39;100.00;99341.56;6152409;23;20015;-69
2023/08/02 05:27:31;;;;;;;5.68;5.38;;;;;;;15.46;100.00;99337.38;6170837;23;20031;-70
2023/08/02 05:29:57;;;;;;;5.38;5.07;;;;;;;15.45;100.00;99334.88;6174619;23;20028;-70
2023/08/02 05:32:24;;;;;;;6.13;5.72;;;;;;;15.11;100.00;99271.97;6178796;23;20067;-69
2023/08/02 05:34:50;;;;;;;6.22;5.63;;;;;;;15.47;100.00;99315.25;6183055;23;20035;-69
2023/08/02 05:37:17;;;;;;;5.90;5.55;;;;;;;15.47;100.00;99317.88;6147330;23;20032;-70
2023/08/02 05:39:43;;;;;;;5.93;5.53;;;;;;;15.46;100.00;99308.31;6176516;23;20057;-69
2023/08/02 05:42:10;;;;;;;6.60;6.10;;;;;;;15.51;100.00;99306.03;6201239;23;20058;-70
2023/08/02 05:44:38;;;;;;;6.95;6.50;;;;;;;15.51;100.00;99306.03;6205233;23;20089;-69
2023/08/02 05:47:06;;;;;;;5.82;5.35;;;;;;;15.52;100.00;99310.38;6199620;23;20020;-69
2023/08/02 05:49:32;;;;;;;6.03;5.53;;;;;;;15.20;100.00;99257.09;6200318;23;20024;-70
2023/08/02 05:51:58;;;;;;;6.22;5.82;;;;;;;15.24;100.00;99251.34;6201835;23;20026;-69
2023/08/02 05:54:25;;;;;;;6.28;5.78;;;;;;;15.55;100.00;99318.03;6199560;23;20091;-70
2023/08/02 05:56:51;;;;;;;6.32;5.95;;;;;;;15.11;100.00;99227.91;6204269;23;20055;-69
2023/08/02 05:59:18;;;;;;;6.03;5.60;;;;;;;15.43;100.00;99271.56;6196356;23;20050;-69
2023/08/02 06:01:47;;;;;;;5.75;5.45;;;;;;;14.86;100.00;99170.44;6195189;23;20044;-70
2023/08/02 06:04:13;;;;;;;6.30;5.90;;;;;;;15.50;100.00;99270.00;6200847;23;20636;-70
2023/08/02 06:06:39;;;;;;;6.15;5.75;;;;;;;15.62;100.00;99262.72;6195850;23;20043;-69
2023/08/02 06:09:06;;;;;;;6.72;6.18;;;;;;;15.28;100.00;99191.13;6172121;23;20049;-70
2023/08/02 06:11:36;;;;;;;6.53;5.93;;;;;;;15.78;100.00;99275.34;6201876;23;20008;-71
2023/08/02 06:14:02;;;;;;;6.43;6.00;;;;;;;15.86;100.00;99267.47;6181295;23;20038;-70
2023/08/02 06:16:29;;;;;;;6.47;5.88;;;;;;;15.64;100.00;99247.53;6193440;23;20032;-70
2023/08/02 06:18:55;;;;;;;6.30;5.90;;;;;;;15.49;100.00;99212.00;6144496;23;20023;-70
2023/08/02 06:21:23;;;;;;;6.55;6.03;;;;;;;15.60;100.00;99240.88;6175591;23;20028;-69
2023/08/02 06:23:49;;;;;;;6.30;5.80;;;;;;;15.59;100.00;99239.19;6171498;23;22289;-69
2023/08/02 06:26:18;;;;;;;6.53;6.03;;;;;;;15.67;100.00;99235.81;6201040;23;20024;-69
2023/08/02 06:28:44;;;;;;;6.00;5.55;;;;;;;15.79;100.00;99255.81;6163390;23;20123;-69
2023/08/02 06:31:11;;;;;;;6.55;6.05;;;;;;;15.88;100.00;99267.34;6196261;23;20519;-69
2023/08/02 06:33:37;;;;;;;6.93;6.32;;;;;;;15.50;100.00;99195.97;6199812;23;20035;-69
2023/08/02 06:36:04;;;;;;;6.28;5.88;;;;;;;15.86;100.00;99245.50;6175485;23;20008;-69
2023/08/02 06:38:32;;;;;;;6.50;6.07;;;;;;;15.81;100.00;99237.97;6171832;23;20024;-71
2023/08/02 06:40:58;;;;;;;6.03;5.63;;;;;;;15.76;100.00;99232.31;6199358;23;20053;-71
2023/08/02 06:43:25;;;;;;;6.18;5.70;;;;;;;15.85;100.00;99226.13;6196990;23;20103;-71
2023/08/02 06:45:51;;;;;;;6.78;6.25;;;;;;;15.71;100.00;99190.41;6172720;23;20072;-72
2023/08/02 06:48:19;;;;;;;6.50;6.07;;;;;;;15.93;100.00;99226.19;6169245;23;20541;-71
2023/08/02 06:50:46;;;;;;;6.30;5.80;;;;;;;15.86;100.00;99203.16;6199208;23;20099;-69
2023/08/02 06:53:12;;;;;;;6.13;5.72;;;;;;;15.56;100.00;99149.63;6196498;23;20028;-68
2023/08/02 06:55:39;;;;;;;6.38;5.85;;;;;;;14.90;100.00;99069.63;6171484;23;20510;-69
2023/08/02 06:58:05;;;;;;;5.88;5.57;;;;;;;15.30;100.00;99125.72;6200681;23;20020;-69
2023/08/02 07:00:34;;;;;;;5.97;5.57;;;;;;;15.66;100.00;99178.63;6174582;23;20035;-69
2023/08/02 07:03:05;;;;;;;6.53;5.95;;;;;;;15.68;100.00;99151.06;6200458;23;20040;-69
2023/08/02 07:05:32;;;;;;;7.13;6.30;;;;;;;15.85;100.00;99172.38;6157229;23;20029;-69
2023/08/02 07:08:00;;;;;;;8.13;5.90;;;;;;;15.90;100.00;99170.13;6199701;23;20038;-69
2023/08/02 07:10:27;;;;;;;6.65;6.05;;;;;;;15.72;100.00;99112.78;6179059;23;20055;-69
2023/08/02 07:12:55;;;;;;;6.60;5.75;;;;;;;16.04;100.00;99147.59;6171328;23;20029;-69
2023/08/02 07:15:24;;;;;;;7.25;6.03;;;;;;;15.71;100.00;99075.84;6187739;23;20064;-69
2023/08/02 07:17:50;;;;;;;5.65;5.25;;;;;;;16.04;100.00;99111.38;6169746;23;20032;-69
2023/08/02 07:20:19;;;;;;;6.18;5.68;;;;;;;16.09;100.00;99113.53;6192619;23;20043;-69
2023/08/02 07:22:46;;;;;;;6.18;5.68;;;;;;;16.11;100.00;99112.41;6178817;23;20020;-69
2023/08/02 07:25:12;;;;;;;6.43;5.82;;;;;;;15.91;100.00;99065.94;6200451;23;20087;-69
2023/08/02 07:27:39;;;;;;;5.13;4.82;;;;;;;16.31;100.00;99093.69;6177352;23;20028;-69
2023/08/02 07:30:06;;;;;;;5.85;5.55;;;;;;;16.34;100.00;99080.13;6173852;23;20077;-68
2023/08/02 07:32:35;;;;;;;5.82;5.43;;;;;;;16.28;100.00;99043.72;6202061;23;20047;-69
2023/08/02 07:35:01;;;;;;;5.72;5.40;;;;;;;16.22;100.00;99008.09;6199597;23;20020;-69
2023/08/02 07:37:28;;;;;;;6.22;5.75;;;;;;;16.42;100.00;99011.34;6171700;23;20145;-69
2023/08/02 07:39:55;;;;;;;6.10;5.60;;;;;;;16.80;100.00;99040.09;6198686;23;20094;-70
2023/08/02 07:42:22;;;;;;;6.40;5.90;;;;;;;16.60;100.00;98957.44;6197687;23;20020;-69
2023/08/02 07:45:08;;;;;;;6.95;5.40;;;;;;;16.98;100.00;98984.38;6202767;23;20038;-69
2023/08/02 07:47:35;;;;;;;6.20;5.70;;;;;;;17.07;100.00;98972.78;6203341;23;20103;-73
2023/08/02 07:50:03;;;;;;;5.53;5.22;;;;;;;17.59;100.00;98987.53;6202426;23;20097;-71
2023/08/02 07:52:30;;;;;;;5.90;5.57;;;;;;;17.92;100.00;98965.31;6175809;23;20028;-68
2023/08/02 07:54:56;;;;;;;5.78;5.47;;;;;;;18.03;100.00;98907.53;6183411;23;20073;-68
2023/08/02 07:57:25;;;;;;;6.65;6.05;;;;;;;18.46;100.00;98906.19;6198700;23;20012;-69
2023/08/02 07:59:52;;;;;;;6.43;6.03;;;;;;;18.40;100.00;98815.72;6203261;23;20103;-69
2023/08/02 08:02:20;;;;;;;6.90;6.15;;;;;;;18.81;100.00;98834.06;6178186;23;20065;-69
2023/08/02 08:04:46;;;;;;;6.00;5.63;;;;;;;18.88;100.00;98806.59;6172356;23;20482;-69
2023/08/02 08:07:13;;;;;;;6.53;5.90;;;;;;;18.64;100.00;98791.66;6196392;23;20016;-69
2023/08/02 08:09:39;;;;;;;6.20;5.80;;;;;;;18.97;100.00;98828.59;6204045;23;20227;-69
2023/08/02 08:12:06;;;;;;;6.28;5.82;;;;;;;18.49;100.00;98727.03;6182665;23;20092;-69
2023/08/02 08:14:35;;;;;;;6.32;5.97;;;;;;;18.95;100.00;98780.09;6203892;23;20128;-71
2023/08/02 08:17:03;;;;;;;6.45;6.05;;;;;;;18.90;100.00;98783.31;6203631;23;20027;-69
2023/08/02 08:19:31;;;;;;;6.65;6.20;;;;;;;18.59;100.00;98735.56;6202270;23;20120;-69
2023/08/02 08:21:57;;;;;;;6.30;5.90;;;;;;;18.66;100.00;98783.47;6205214;23;20047;-69
2023/08/02 08:24:24;;;;;;;6.55;6.05;;;;;;;18.65;100.00;98806.56;6176309;23;20024;-68
2023/08/02 08:26:50;;;;;;;6.45;6.00;;;;;;;18.48;100.00;98813.00;6198971;23;20051;-69
2023/08/02 08:29:17;;;;;;;6.95;6.30;;;;;;;18.00;100.00;98761.88;6176966;23;20580;-71
2023/08/02 08:31:43;;;;;;;6.22;5.82;;;;;;;18.09;100.00;98835.16;6147781;23;20028;-70
2023/08/02 08:34:10;;;;;;;6.55;6.05;;;;;;;18.29;100.00;98851.50;6204834;23;20043;-69
2023/08/02 08:36:37;;;;;;;6.55;6.05;;;;;;;18.24;100.00;98825.47;6185263;23;20035;-69
2023/08/02 08:39:05;;;;;;;6.10;5.70;;;;;;;18.43;100.00;98839.28;6183834;23;20572;-69
2023/08/02 08:41:31;;;;;;;6.45;6.05;;;;;;;18.66;100.00;98860.53;6201306;23;20031;-69
2023/08/02 08:44:03;;;;;;;6.30;5.90;;;;;;;18.54;100.00;98806.97;6173692;23;20008;-70
2023/08/02 08:46:31;;;;;;;6.68;6.18;;;;;;;18.84;100.00;98839.00;6199776;23;20032;-69
2023/08/02 08:49:02;;;;;;;6.05;5.68;;;;;;;18.74;100.00;98816.13;6203662;23;20040;-69
2023/08/02 08:51:33;;;;;;;6.15;5.80;;;;;;;19.15;100.00;98832.75;6200485;23;20024;-71
2023/08/02 08:54:08;;;;;;;6.53;5.97;;;;;;;19.09;100.00;98824.50;6175902;23;20020;-69
2023/08/02 08:56:40;;;;;;;6.93;6.20;;;;;;;19.06;100.00;98782.31;6172521;23;20045;-69
2023/08/02 08:59:08;;;;;;;6.30;5.90;;;;;;;19.34;100.00;98794.97;6197298;22;20053;-69
2023/08/02 09:01:36;;;;;;;6.50;5.85;;;;;;;19.41;100.00;98785.25;6199934;23;20031;-70
2023/08/02 09:04:04;;;;;;;6.50;6.10;;;;;;;19.28;100.00;98801.88;6177346;23;20033;-69
2023/08/02 09:06:31;;;;;;;6.00;5.60;;;;;;;18.94;100.00;98741.22;6196085;23;20027;-69
2023/08/02 09:08:57;;;;;;;6.35;5.95;;;;;;;18.29;100.00;98662.97;6153065;23;20533;-69
2023/08/02 09:11:25;;;;;;;5.95;5.63;;;;;;;18.92;100.00;98767.16;6200825;23;20050;-69
2023/08/02 09:14:11;;;;;;;6.20;5.90;;;;;;;18.95;100.00;98774.78;6175869;23;20076;-70
2023/08/02 09:16:57;;;;;;;6.18;5.88;;;;;;;19.13;100.00;98809.81;6198696;23;20076;-69
2023/08/02 09:19:27;;;;;;;5.50;5.20;;;;;;;19.25;100.00;98785.44;6177865;23;20034;-69
2023/08/02 09:22:14;;;;;;;5.78;5.38;;;;;;;19.62;100.00;98783.69;6199348;23;20091;-69
2023/08/02 09:24:44;;;;;;;5.72;5.43;;;;;;;19.58;100.00;98747.81;6193984;23;20037;-69
2023/08/02 09:27:14;;;;;;;5.60;5.30;;;;;;;19.62;100.00;98757.06;6173139;23;20028;-69
2023/08/02 09:29:48;;;;;;;5.88;5.57;;;;;;;19.67;100.00;98736.88;6171013;23;20035;-70
2023/08/02 09:32:19;;;;;;;5.70;5.40;;;;;;;19.65;100.00;98711.47;6201327;23;20020;-70
2023/08/02 09:34:48;;;;;;;5.75;5.35;;;;;;;19.73;100.00;98722.03;6168143;23;20040;-70
2023/08/02 09:37:16;;;;;;;5.50;5.20;;;;;;;19.86;100.00;98713.34;6186084;23;20030;-70
2023/08/02 09:39:49;;;;;;;6.05;5.65;;;;;;;19.85;100.00;98690.44;6200204;23;20685;-71
2023/08/02 09:42:17;;;;;;;5.72;5.43;;;;;;;19.82;100.00;98686.28;6202691;23;20514;-70
2023/08/02 09:44:52;;;;;;;6.00;5.60;;;;;;;19.36;100.00;98633.34;6175051;23;20757;-70
2023/08/02 09:47:19;;;;;;;5.30;5.10;;;;;;;19.48;100.00;98613.25;6198509;23;20083;-72
2023/08/02 09:50:10;;;;;;;5.30;5.10;;;;;;;18.92;100.00;98542.06;6176293;23;20088;-70
2023/08/02 09:52:39;;;;;;;5.38;5.13;;;;;;;19.74;100.00;98635.84;6200443;23;20044;-69
2023/08/02 09:55:07;;;;;;;5.00;4.80;;;;;;;19.85;100.00;98621.22;6175639;23;20048;-70
2023/08/02 09:57:34;;;;;;;5.65;5.35;;;;;;;20.07;100.00;98668.09;6171662;23;20028;-70
2023/08/02 10:00:07;;;;;;;5.53;5.22;;;;;;;19.70;100.00;98630.06;6196835;23;20044;-70
2023/08/02 10:02:35;;;;;;;5.60;5.30;;;;;;;19.92;100.00;98673.50;6196317;23;20032;-70
2023/08/02 10:05:04;;;;;;;5.60;5.30;;;;;;;19.88;100.00;98685.53;6199680;23;20545;-71
2023/08/02 10:07:39;;;;;;;5.43;5.22;;;;;;;19.65;100.00;98684.88;6171219;23;20079;-70
2023/08/02 10:10:12;;;;;;;5.10;4.90;;;;;;;19.15;100.00;98657.25;6203561;23;20043;-70
2023/08/02 10:12:38;;;;;;;;;;;;;;;19.44;100.00;98729.00;6201987;23;20091;-70
2023/08/02 10:15:05;;;;;;;5.15;4.95;;;;;;;19.46;100.00;98750.94;6202505;23;20572;-70
2023/08/02 10:17:32;;;;;;;5.68;5.30;;;;;;;19.21;100.00;98709.72;6200887;23;20501;-70
2023/08/02 10:20:02;;;;;;;5.40;5.10;;;;;;;19.71;100.00;98756.81;6195744;23;20040;-70
2023/08/02 10:22:30;;;;;;;5.00;4.80;;;;;;;19.40;100.00;98682.50;6171619;23;20024;-70
2023/08/02 10:24:59;;;;;;;5.15;4.95;;;;;;;20.09;100.00;98734.50;6200516;23;20020;-70
2023/08/02 10:27:26;;;;;;;5.25;4.95;;;;;;;20.51;100.00;98730.16;6199659;23;20091;-70
2023/08/02 10:29:54;;;;;;;5.40;4.93;;;;;;;21.18;100.00;98715.44;6196951;23;20478;-70
2023/08/02 10:32:22;;;;;;;5.32;5.03;;;;;;;21.60;100.00;98680.75;6168401;23;20035;-71
2023/08/02 10:34:52;;;;;;;5.65;5.35;;;;;;;21.69;100.00;98634.19;6202752;23;20051;-71
2023/08/02 10:37:20;;;;;;;5.60;5.30;;;;;;;21.59;100.00;98583.84;6175778;23;20031;-70
2023/08/02 10:39:50;;;;;;;5.57;5.28;;;;;;;21.64;100.00;98596.59;6168585;23;20031;-70
2023/08/02 10:42:29;;;;;;;5.50;5.20;;;;;;;21.55;100.00;98561.25;6194079;23;20154;-70
2023/08/02 10:44:56;;;;;;;5.38;5.18;;;;;;;21.75;100.00;98563.97;6198176;23;20039;-70
2023/08/02 10:47:26;;;;;;;5.40;5.10;;;;;;;21.94;100.00;98558.81;6201973;23;20032;-70
2023/08/02 10:49:53;;;;;;;5.28;5.07;;;;;;;21.91;100.00;98512.00;6198596;23;20028;-71
2023/08/02 10:52:30;;;;;;;5.30;5.10;;;;;;;21.83;100.00;98529.03;6170196;23;20608;-71
2023/08/02 10:55:04;;;;;;;5.30;5.10;;;;;;;22.07;100.00;98534.75;6200377;23;20038;-71
2023/08/02 10:57:30;;;;;;;5.65;5.43;;;;;;;22.22;100.00;98479.25;6174834;23;20076;-71
2023/08/02 10:59:57;;;;;;;5.80;5.40;;;;;;;22.15;99.27;98432.19;6198211;23;20043;-69
2023/08/02 11:02:26;;;;;;;5.32;5.13;;;;;;;22.35;96.54;98442.84;6206626;23;20016;-69
2023/08/02 11:04:53;;;;;;;5.63;5.32;;;;;;;22.17;97.37;98447.00;6204202;23;20032;-70
2023/08/02 11:07:21;;;;;;;5.50;5.20;;;;;;;22.28;94.74;98408.94;6177580;23;20039;-70
2023/08/02 11:09:51;;;;;;;5.50;5.30;;;;;;;22.28;96.19;98432.19;6167607;23;20073;-70
2023/08/02 11:12:20;;;;;;;5.70;5.40;;;;;;;21.28;95.26;98293.56;6204744;23;20042;-70
2023/08/02 11:14:49;;;;;;;5.80;5.50;;;;;;;21.70;98.11;98420.38;6172520;23;20034;-70
2023/08/02 11:17:21;;;;;;;5.47;5.28;;;;;;;21.31;100.00;98487.94;6201573;23;20019;-70
2023/08/02 11:19:53;;;;;;;5.50;5.30;;;;;;;20.67;100.00;98494.53;6181700;23;20071;-70
2023/08/02 11:22:22;;;;;;;5.80;5.30;;;;;;;21.06;100.00;98541.81;6198836;23;20465;-72
2023/08/02 11:24:51;;;;;;;5.35;5.15;;;;;;;21.17;100.00;98553.78;6168162;23;20035;-70
2023/08/02 11:27:19;;;;;;;5.60;5.30;;;;;;;21.23;100.00;98560.16;6199774;23;20026;-70
2023/08/02 11:30:04;;;;;;;5.50;5.30;;;;;;;21.20;100.00;98515.19;6158273;23;20055;-70
2023/08/02 11:32:32;;;;;;;5.53;5.30;;;;;;;21.69;100.00;98540.75;6200173;23;20841;-70